Lone Star Executive Airport
KCXO : now visible

Airfield :











YOU CAN JOIN US ON...

 
LOGIN :

Register | Disclaimer

   EN    FR    IT 

 









Legend :    VFR   Marginal VFR   IFR   Intensive IFR   Very Intensive IFR
Visi :
Ceiling :
>= 8 km
>= 3000ft
5 to 8 km
1000 to 3000 ft
1500m to 5 km
500 to 1000 ft
800 to 1500m
200 to 500 ft
< 800m
< 200 ft
Symbols :   Thunderstorms  Fog  Heavy snow  Heavy precipitations  Wind > 20 kt






- Airport Elevation : 245 ft


KCXO - Lone Star Executive

CURRENT METAR :
  • 021553Z 20009G16KT 10SM CLR 31/24 A2998 RMK AO2 RAE04 SLP148 P0000 T03060239

EXPIRED METARs :
  • 021453Z 21007G19KT 10SM +RA FEW029 SCT042 BKN050 27/24 A2999 RMK AO2 RAB21E34B44 SLP150 P0015 60015 T02670239 51012
  • 021448Z 21015G19KT 1 3/4SM +RA FEW026 SCT036 BKN050 27/24 A2999 RMK AO2 RAB21E34B44 P0010
  • 020253Z AUTO 08003KT 10SM CLR 24/24 A2993 RMK AO2 SLP130 T02440239 53006
  • 021406Z 21009KT 10SM BKN016 BKN070 28/24 A2998 RMK AO2 T02830244
  • 021359Z 21009KT 10SM SCT016 BKN070 28/24 A2998 RMK AO2 T02830244
  • 021353Z 21008G17KT 10SM BKN014 BKN070 28/25 A2998 RMK AO2 SLP149 T02830250

TAF KCXO
Valid from the 02 at 15:00 until the 03 at 12:00 UTC


021444Z 0215/0312 19008KT P6SM VCSH SCT025 BKN050
FM022200 16007KT P6SM SCT035 BKN250
FM030500 VRB04KT P6SM FEW020 SCT250
KZHU FIR / North America



MET'MAP, your aeronautical weather chart ! - Copyright ORBIFLY December 2007 - Disclaimer

ORBIFLY MET'MAP TEAM :

Programming & Development : Alexandra Zaïnal
Original concept : Baudouin d'Aumeries
Technical & hardware support : Manuel Goepfert
Assistance : Marc-Olivier Méhu




SOURCES & CREDITS :

   NOAA       Earth
Advisory